sensor_id;sensor_type;location;lat;lon;timestamp;P1;durP1;ratioP1;P2;durP2;ratioP2
58338;SDS011;68636;52.704;6.536;2024-02-21T00:00:51;15.73;;;5.53;;
58338;SDS011;68636;52.704;6.536;2024-02-21T00:03:17;19.45;;;5.45;;
58338;SDS011;68636;52.704;6.536;2024-02-21T00:05:43;16.50;;;5.43;;
58338;SDS011;68636;52.704;6.536;2024-02-21T00:08:09;17.80;;;5.10;;
58338;SDS011;68636;52.704;6.536;2024-02-21T00:10:35;16.25;;;5.35;;
58338;SDS011;68636;52.704;6.536;2024-02-21T00:13:02;13.48;;;4.70;;
58338;SDS011;68636;52.704;6.536;2024-02-21T00:15:28;14.57;;;4.40;;
58338;SDS011;68636;52.704;6.536;2024-02-21T00:17:54;10.38;;;3.60;;
58338;SDS011;68636;52.704;6.536;2024-02-21T00:20:20;11.82;;;3.60;;
58338;SDS011;68636;52.704;6.536;2024-02-21T00:22:46;10.13;;;2.70;;
58338;SDS011;68636;52.704;6.536;2024-02-21T00:25:12;9.38;;;2.65;;
58338;SDS011;68636;52.704;6.536;2024-02-21T00:27:38;10.27;;;2.40;;
58338;SDS011;68636;52.704;6.536;2024-02-21T00:30:05;11.85;;;2.30;;
58338;SDS011;68636;52.704;6.536;2024-02-21T00:32:31;14.23;;;2.22;;
58338;SDS011;68636;52.704;6.536;2024-02-21T00:34:59;12.25;;;2.47;;
58338;SDS011;68636;52.704;6.536;2024-02-21T00:37:26;9.20;;;2.63;;
58338;SDS011;68636;52.704;6.536;2024-02-21T00:39:53;12.23;;;3.03;;
58338;SDS011;68636;52.704;6.536;2024-02-21T00:44:46;9.35;;;1.95;;
58338;SDS011;68636;52.704;6.536;2024-02-21T00:47:12;10.20;;;2.20;;
58338;SDS011;68636;52.704;6.536;2024-02-21T00:49:38;10.77;;;2.05;;
58338;SDS011;68636;52.704;6.536;2024-02-21T00:52:04;9.82;;;2.10;;
58338;SDS011;68636;52.704;6.536;2024-02-21T00:54:30;8.07;;;2.10;;
58338;SDS011;68636;52.704;6.536;2024-02-21T00:56:57;11.15;;;2.20;;
58338;SDS011;68636;52.704;6.536;2024-02-21T00:59:23;13.60;;;2.08;;
58338;SDS011;68636;52.704;6.536;2024-02-21T01:01:49;8.98;;;2.47;;
58338;SDS011;68636;52.704;6.536;2024-02-21T01:04:15;10.95;;;2.33;;
58338;SDS011;68636;52.704;6.536;2024-02-21T01:06:41;14.90;;;3.08;;
58338;SDS011;68636;52.704;6.536;2024-02-21T01:09:09;12.20;;;2.58;;
58338;SDS011;68636;52.704;6.536;2024-02-21T01:11:35;13.68;;;2.28;;
58338;SDS011;68636;52.704;6.536;2024-02-21T01:14:01;9.18;;;2.30;;
58338;SDS011;68636;52.704;6.536;2024-02-21T01:16:27;8.90;;;2.22;;
58338;SDS011;68636;52.704;6.536;2024-02-21T01:18:53;15.23;;;2.45;;
58338;SDS011;68636;52.704;6.536;2024-02-21T01:21:19;13.57;;;2.45;;
58338;SDS011;68636;52.704;6.536;2024-02-21T01:23:46;14.75;;;3.00;;
58338;SDS011;68636;52.704;6.536;2024-02-21T01:26:12;13.07;;;2.92;;
58338;SDS011;68636;52.704;6.536;2024-02-21T01:28:40;16.08;;;2.70;;
58338;SDS011;68636;52.704;6.536;2024-02-21T01:31:06;8.90;;;2.20;;
58338;SDS011;68636;52.704;6.536;2024-02-21T01:33:32;16.63;;;2.70;;
58338;SDS011;68636;52.704;6.536;2024-02-21T01:36:03;13.90;;;2.75;;
58338;SDS011;68636;52.704;6.536;2024-02-21T01:38:31;13.32;;;3.00;;
58338;SDS011;68636;52.704;6.536;2024-02-21T01:40:58;18.90;;;4.00;;
58338;SDS011;68636;52.704;6.536;2024-02-21T01:43:24;11.90;;;3.00;;
58338;SDS011;68636;52.704;6.536;2024-02-21T01:45:50;14.18;;;3.10;;
58338;SDS011;68636;52.704;6.536;2024-02-21T01:50:46;12.10;;;2.78;;
58338;SDS011;68636;52.704;6.536;2024-02-21T01:53:14;17.13;;;2.50;;
58338;SDS011;68636;52.704;6.536;2024-02-21T01:55:46;11.80;;;2.58;;
58338;SDS011;68636;52.704;6.536;2024-02-21T01:58:16;15.13;;;3.10;;
58338;SDS011;68636;52.704;6.536;2024-02-21T02:00:43;18.88;;;3.13;;
58338;SDS011;68636;52.704;6.536;2024-02-21T02:05:43;17.25;;;3.25;;
58338;SDS011;68636;52.704;6.536;2024-02-21T02:08:09;15.15;;;3.63;;
58338;SDS011;68636;52.704;6.536;2024-02-21T02:10:36;10.30;;;3.05;;
58338;SDS011;68636;52.704;6.536;2024-02-21T02:13:02;19.60;;;3.63;;
58338;SDS011;68636;52.704;6.536;2024-02-21T02:15:37;13.93;;;3.80;;
58338;SDS011;68636;52.704;6.536;2024-02-21T02:18:03;17.33;;;4.20;;
58338;SDS011;68636;52.704;6.536;2024-02-21T02:20:29;17.83;;;4.93;;
58338;SDS011;68636;52.704;6.536;2024-02-21T02:22:55;15.68;;;4.40;;
58338;SDS011;68636;52.704;6.536;2024-02-21T02:25:22;18.45;;;4.07;;
58338;SDS011;68636;52.704;6.536;2024-02-21T02:27:48;18.70;;;4.95;;
58338;SDS011;68636;52.704;6.536;2024-02-21T02:30:14;16.50;;;4.57;;
58338;SDS011;68636;52.704;6.536;2024-02-21T02:32:44;18.40;;;4.60;;
58338;SDS011;68636;52.704;6.536;2024-02-21T02:35:10;22.38;;;4.55;;
58338;SDS011;68636;52.704;6.536;2024-02-21T02:37:36;17.85;;;4.05;;
58338;SDS011;68636;52.704;6.536;2024-02-21T02:40:04;19.55;;;4.65;;
58338;SDS011;68636;52.704;6.536;2024-02-21T02:42:30;11.20;;;4.15;;
58338;SDS011;68636;52.704;6.536;2024-02-21T02:44:56;17.75;;;4.95;;
58338;SDS011;68636;52.704;6.536;2024-02-21T02:47:23;17.58;;;4.63;;
58338;SDS011;68636;52.704;6.536;2024-02-21T02:49:49;16.27;;;4.38;;
58338;SDS011;68636;52.704;6.536;2024-02-21T02:52:19;20.00;;;4.90;;
58338;SDS011;68636;52.704;6.536;2024-02-21T02:54:45;17.52;;;4.18;;
58338;SDS011;68636;52.704;6.536;2024-02-21T02:57:16;22.55;;;4.18;;
58338;SDS011;68636;52.704;6.536;2024-02-21T02:59:46;17.55;;;5.00;;
58338;SDS011;68636;52.704;6.536;2024-02-21T03:02:12;17.67;;;4.63;;
58338;SDS011;68636;52.704;6.536;2024-02-21T03:04:42;19.02;;;4.60;;
58338;SDS011;68636;52.704;6.536;2024-02-21T03:07:08;15.93;;;4.75;;
58338;SDS011;68636;52.704;6.536;2024-02-21T03:09:34;14.82;;;4.80;;
58338;SDS011;68636;52.704;6.536;2024-02-21T03:12:00;14.30;;;5.03;;
58338;SDS011;68636;52.704;6.536;2024-02-21T03:14:29;20.25;;;5.50;;
58338;SDS011;68636;52.704;6.536;2024-02-21T03:16:55;19.80;;;4.72;;
58338;SDS011;68636;52.704;6.536;2024-02-21T03:19:21;19.37;;;5.17;;
58338;SDS011;68636;52.704;6.536;2024-02-21T03:21:47;18.05;;;4.72;;
58338;SDS011;68636;52.704;6.536;2024-02-21T03:24:14;19.58;;;5.53;;
58338;SDS011;68636;52.704;6.536;2024-02-21T03:26:41;17.40;;;5.38;;
58338;SDS011;68636;52.704;6.536;2024-02-21T03:29:07;22.50;;;5.32;;
58338;SDS011;68636;52.704;6.536;2024-02-21T03:31:34;20.63;;;4.80;;
58338;SDS011;68636;52.704;6.536;2024-02-21T03:34:00;18.23;;;5.40;;
58338;SDS011;68636;52.704;6.536;2024-02-21T03:36:26;14.65;;;5.05;;
58338;SDS011;68636;52.704;6.536;2024-02-21T03:38:53;23.88;;;5.05;;
58338;SDS011;68636;52.704;6.536;2024-02-21T03:43:45;20.93;;;4.63;;
58338;SDS011;68636;52.704;6.536;2024-02-21T03:46:12;18.60;;;4.85;;
58338;SDS011;68636;52.704;6.536;2024-02-21T03:48:38;16.88;;;4.35;;
58338;SDS011;68636;52.704;6.536;2024-02-21T03:51:04;21.25;;;4.85;;
58338;SDS011;68636;52.704;6.536;2024-02-21T03:53:30;20.02;;;5.03;;
58338;SDS011;68636;52.704;6.536;2024-02-21T03:55:56;18.90;;;4.40;;
58338;SDS011;68636;52.704;6.536;2024-02-21T03:58:27;16.30;;;4.57;;
58338;SDS011;68636;52.704;6.536;2024-02-21T04:00:54;16.48;;;4.22;;
58338;SDS011;68636;52.704;6.536;2024-02-21T04:03:20;18.38;;;4.60;;
58338;SDS011;68636;52.704;6.536;2024-02-21T04:05:46;21.42;;;4.88;;
58338;SDS011;68636;52.704;6.536;2024-02-21T04:08:12;16.52;;;4.43;;
58338;SDS011;68636;52.704;6.536;2024-02-21T04:10:38;16.88;;;3.72;;
58338;SDS011;68636;52.704;6.536;2024-02-21T04:13:06;22.35;;;4.65;;
58338;SDS011;68636;52.704;6.536;2024-02-21T04:15:32;18.30;;;4.43;;
58338;SDS011;68636;52.704;6.536;2024-02-21T04:17:59;21.45;;;4.40;;
58338;SDS011;68636;52.704;6.536;2024-02-21T04:20:25;14.52;;;4.07;;
58338;SDS011;68636;52.704;6.536;2024-02-21T04:22:51;15.63;;;4.30;;
58338;SDS011;68636;52.704;6.536;2024-02-21T04:25:17;20.55;;;4.50;;
58338;SDS011;68636;52.704;6.536;2024-02-21T04:27:44;24.35;;;5.43;;
58338;SDS011;68636;52.704;6.536;2024-02-21T04:30:10;19.80;;;5.22;;
58338;SDS011;68636;52.704;6.536;2024-02-21T04:32:36;24.20;;;4.82;;
58338;SDS011;68636;52.704;6.536;2024-02-21T04:35:03;20.30;;;4.00;;
58338;SDS011;68636;52.704;6.536;2024-02-21T04:37:29;16.38;;;4.95;;
58338;SDS011;68636;52.704;6.536;2024-02-21T04:39:56;16.13;;;5.07;;
58338;SDS011;68636;52.704;6.536;2024-02-21T04:42:23;21.58;;;5.05;;
58338;SDS011;68636;52.704;6.536;2024-02-21T04:44:49;19.90;;;4.13;;
58338;SDS011;68636;52.704;6.536;2024-02-21T04:47:15;17.23;;;4.22;;
58338;SDS011;68636;52.704;6.536;2024-02-21T04:49:41;19.85;;;3.95;;
58338;SDS011;68636;52.704;6.536;2024-02-21T04:52:08;17.95;;;4.70;;
58338;SDS011;68636;52.704;6.536;2024-02-21T04:54:34;14.10;;;3.80;;
58338;SDS011;68636;52.704;6.536;2024-02-21T04:57:00;17.75;;;5.55;;
58338;SDS011;68636;52.704;6.536;2024-02-21T04:59:26;17.80;;;4.18;;
58338;SDS011;68636;52.704;6.536;2024-02-21T05:01:52;12.02;;;3.92;;
58338;SDS011;68636;52.704;6.536;2024-02-21T05:04:19;21.98;;;4.97;;
58338;SDS011;68636;52.704;6.536;2024-02-21T05:06:45;19.92;;;4.57;;
58338;SDS011;68636;52.704;6.536;2024-02-21T05:09:11;18.58;;;4.28;;
58338;SDS011;68636;52.704;6.536;2024-02-21T05:11:37;18.70;;;3.93;;
58338;SDS011;68636;52.704;6.536;2024-02-21T05:14:04;20.53;;;4.60;;
58338;SDS011;68636;52.704;6.536;2024-02-21T05:16:30;16.63;;;3.92;;
58338;SDS011;68636;52.704;6.536;2024-02-21T05:18:56;13.85;;;4.10;;
58338;SDS011;68636;52.704;6.536;2024-02-21T05:21:23;23.52;;;4.95;;
58338;SDS011;68636;52.704;6.536;2024-02-21T05:23:49;19.45;;;4.40;;
58338;SDS011;68636;52.704;6.536;2024-02-21T05:26:22;15.90;;;3.67;;
58338;SDS011;68636;52.704;6.536;2024-02-21T05:28:48;19.88;;;4.75;;
58338;SDS011;68636;52.704;6.536;2024-02-21T05:31:18;19.63;;;4.20;;
58338;SDS011;68636;52.704;6.536;2024-02-21T05:33:44;18.63;;;4.43;;
58338;SDS011;68636;52.704;6.536;2024-02-21T05:36:11;16.90;;;3.78;;
58338;SDS011;68636;52.704;6.536;2024-02-21T05:38:39;19.20;;;4.00;;
58338;SDS011;68636;52.704;6.536;2024-02-21T05:41:06;22.95;;;5.03;;
58338;SDS011;68636;52.704;6.536;2024-02-21T05:43:35;16.37;;;4.37;;
58338;SDS011;68636;52.704;6.536;2024-02-21T05:46:01;20.05;;;4.80;;
58338;SDS011;68636;52.704;6.536;2024-02-21T05:48:27;16.50;;;4.60;;
58338;SDS011;68636;52.704;6.536;2024-02-21T05:50:53;19.70;;;4.88;;
58338;SDS011;68636;52.704;6.536;2024-02-21T05:53:19;19.40;;;5.07;;
58338;SDS011;68636;52.704;6.536;2024-02-21T05:55:45;23.55;;;5.25;;
58338;SDS011;68636;52.704;6.536;2024-02-21T05:58:11;18.13;;;5.97;;
58338;SDS011;68636;52.704;6.536;2024-02-21T06:00:39;23.88;;;6.70;;
58338;SDS011;68636;52.704;6.536;2024-02-21T06:03:05;19.48;;;7.07;;
58338;SDS011;68636;52.704;6.536;2024-02-21T06:05:38;20.20;;;6.38;;
58338;SDS011;68636;52.704;6.536;2024-02-21T06:08:04;19.35;;;6.13;;
58338;SDS011;68636;52.704;6.536;2024-02-21T06:10:30;18.00;;;6.67;;
58338;SDS011;68636;52.704;6.536;2024-02-21T06:12:56;23.60;;;7.20;;
58338;SDS011;68636;52.704;6.536;2024-02-21T06:15:22;22.15;;;6.57;;
58338;SDS011;68636;52.704;6.536;2024-02-21T06:17:48;18.50;;;7.55;;
58338;SDS011;68636;52.704;6.536;2024-02-21T06:20:16;24.95;;;8.02;;
58338;SDS011;68636;52.704;6.536;2024-02-21T06:22:42;24.08;;;7.40;;
58338;SDS011;68636;52.704;6.536;2024-02-21T06:25:08;26.52;;;8.15;;
58338;SDS011;68636;52.704;6.536;2024-02-21T06:27:34;22.40;;;7.30;;
58338;SDS011;68636;52.704;6.536;2024-02-21T06:30:00;23.02;;;7.80;;
58338;SDS011;68636;52.704;6.536;2024-02-21T06:32:28;22.77;;;6.95;;
58338;SDS011;68636;52.704;6.536;2024-02-21T06:34:54;25.45;;;8.00;;
58338;SDS011;68636;52.704;6.536;2024-02-21T06:37:20;21.33;;;7.25;;
58338;SDS011;68636;52.704;6.536;2024-02-21T06:39:46;22.42;;;8.30;;
58338;SDS011;68636;52.704;6.536;2024-02-21T06:42:12;24.58;;;7.18;;
58338;SDS011;68636;52.704;6.536;2024-02-21T06:44:38;19.95;;;7.60;;
58338;SDS011;68636;52.704;6.536;2024-02-21T06:47:05;18.50;;;7.78;;
58338;SDS011;68636;52.704;6.536;2024-02-21T06:49:33;20.23;;;7.25;;
58338;SDS011;68636;52.704;6.536;2024-02-21T06:51:59;22.20;;;7.90;;
58338;SDS011;68636;52.704;6.536;2024-02-21T06:54:26;25.15;;;8.23;;
58338;SDS011;68636;52.704;6.536;2024-02-21T06:56:52;15.88;;;7.15;;
58338;SDS011;68636;52.704;6.536;2024-02-21T06:59:18;18.20;;;7.18;;
58338;SDS011;68636;52.704;6.536;2024-02-21T07:01:45;23.40;;;8.10;;
58338;SDS011;68636;52.704;6.536;2024-02-21T07:04:11;18.00;;;6.90;;
58338;SDS011;68636;52.704;6.536;2024-02-21T07:06:37;24.80;;;7.70;;
58338;SDS011;68636;52.704;6.536;2024-02-21T07:09:10;26.48;;;8.43;;
58338;SDS011;68636;52.704;6.536;2024-02-21T07:11:39;22.30;;;8.32;;
58338;SDS011;68636;52.704;6.536;2024-02-21T07:14:05;21.38;;;7.68;;
58338;SDS011;68636;52.704;6.536;2024-02-21T07:16:31;21.70;;;7.70;;
58338;SDS011;68636;52.704;6.536;2024-02-21T07:18:58;19.27;;;7.80;;
58338;SDS011;68636;52.704;6.536;2024-02-21T07:21:24;25.20;;;8.90;;
58338;SDS011;68636;52.704;6.536;2024-02-21T07:23:51;23.58;;;7.40;;
58338;SDS011;68636;52.704;6.536;2024-02-21T07:26:17;20.65;;;7.40;;
58338;SDS011;68636;52.704;6.536;2024-02-21T07:28:43;19.25;;;7.20;;
58338;SDS011;68636;52.704;6.536;2024-02-21T07:31:09;21.02;;;7.80;;
58338;SDS011;68636;52.704;6.536;2024-02-21T07:33:35;17.77;;;7.15;;
58338;SDS011;68636;52.704;6.536;2024-02-21T07:36:05;20.48;;;7.93;;
58338;SDS011;68636;52.704;6.536;2024-02-21T07:38:31;20.33;;;7.65;;
58338;SDS011;68636;52.704;6.536;2024-02-21T07:40:57;16.33;;;6.50;;
58338;SDS011;68636;52.704;6.536;2024-02-21T07:43:23;22.17;;;8.77;;
58338;SDS011;68636;52.704;6.536;2024-02-21T07:45:51;21.35;;;8.70;;
58338;SDS011;68636;52.704;6.536;2024-02-21T07:48:18;16.42;;;8.40;;
58338;SDS011;68636;52.704;6.536;2024-02-21T07:50:44;21.97;;;8.60;;
58338;SDS011;68636;52.704;6.536;2024-02-21T07:53:11;25.45;;;8.60;;
58338;SDS011;68636;52.704;6.536;2024-02-21T07:55:37;19.88;;;8.80;;
58338;SDS011;68636;52.704;6.536;2024-02-21T07:58:03;20.17;;;8.38;;
58338;SDS011;68636;52.704;6.536;2024-02-21T08:00:29;21.80;;;9.30;;
58338;SDS011;68636;52.704;6.536;2024-02-21T08:02:55;22.00;;;9.07;;
58338;SDS011;68636;52.704;6.536;2024-02-21T08:05:22;24.00;;;9.25;;
58338;SDS011;68636;52.704;6.536;2024-02-21T08:07:48;22.83;;;9.45;;
58338;SDS011;68636;52.704;6.536;2024-02-21T08:10:14;20.98;;;8.85;;
58338;SDS011;68636;52.704;6.536;2024-02-21T08:12:41;19.45;;;9.82;;
58338;SDS011;68636;52.704;6.536;2024-02-21T08:15:07;19.47;;;9.70;;
58338;SDS011;68636;52.704;6.536;2024-02-21T08:17:36;16.48;;;8.77;;
58338;SDS011;68636;52.704;6.536;2024-02-21T08:20:02;23.43;;;9.67;;
58338;SDS011;68636;52.704;6.536;2024-02-21T08:22:29;25.00;;;10.73;;
58338;SDS011;68636;52.704;6.536;2024-02-21T08:24:55;23.35;;;10.55;;
58338;SDS011;68636;52.704;6.536;2024-02-21T08:27:21;21.02;;;9.68;;
58338;SDS011;68636;52.704;6.536;2024-02-21T08:29:48;19.63;;;9.82;;
58338;SDS011;68636;52.704;6.536;2024-02-21T08:32:14;24.50;;;9.30;;
58338;SDS011;68636;52.704;6.536;2024-02-21T08:34:40;23.00;;;10.10;;
58338;SDS011;68636;52.704;6.536;2024-02-21T08:37:06;21.98;;;9.98;;
58338;SDS011;68636;52.704;6.536;2024-02-21T08:50:27;28.60;;;10.07;;
58338;SDS011;68636;52.704;6.536;2024-02-21T08:52:53;22.15;;;10.13;;
58338;SDS011;68636;52.704;6.536;2024-02-21T08:55:20;23.80;;;10.50;;
58338;SDS011;68636;52.704;6.536;2024-02-21T08:57:46;27.05;;;11.07;;
58338;SDS011;68636;52.704;6.536;2024-02-21T09:00:13;22.38;;;9.63;;
58338;SDS011;68636;52.704;6.536;2024-02-21T09:02:40;25.10;;;10.73;;
58338;SDS011;68636;52.704;6.536;2024-02-21T09:05:08;25.17;;;10.88;;
58338;SDS011;68636;52.704;6.536;2024-02-21T09:07:34;21.88;;;10.60;;
58338;SDS011;68636;52.704;6.536;2024-02-21T09:10:00;22.58;;;10.05;;
58338;SDS011;68636;52.704;6.536;2024-02-21T09:12:27;24.10;;;10.63;;
58338;SDS011;68636;52.704;6.536;2024-02-21T09:14:53;21.80;;;11.25;;
58338;SDS011;68636;52.704;6.536;2024-02-21T09:17:19;23.92;;;11.15;;
58338;SDS011;68636;52.704;6.536;2024-02-21T09:19:46;18.60;;;9.90;;
58338;SDS011;68636;52.704;6.536;2024-02-21T09:24:39;24.35;;;9.10;;
58338;SDS011;68636;52.704;6.536;2024-02-21T09:27:05;21.43;;;9.97;;
58338;SDS011;68636;52.704;6.536;2024-02-21T09:29:31;21.08;;;10.23;;
58338;SDS011;68636;52.704;6.536;2024-02-21T09:32:01;17.05;;;10.63;;
58338;SDS011;68636;52.704;6.536;2024-02-21T09:34:28;25.52;;;9.52;;
58338;SDS011;68636;52.704;6.536;2024-02-21T09:36:54;20.58;;;9.60;;
58338;SDS011;68636;52.704;6.536;2024-02-21T09:39:20;22.30;;;9.02;;
58338;SDS011;68636;52.704;6.536;2024-02-21T09:41:50;19.50;;;9.00;;
58338;SDS011;68636;52.704;6.536;2024-02-21T09:44:22;22.55;;;9.13;;
58338;SDS011;68636;52.704;6.536;2024-02-21T09:49:31;20.38;;;8.27;;
58338;SDS011;68636;52.704;6.536;2024-02-21T09:52:00;16.13;;;7.80;;
58338;SDS011;68636;52.704;6.536;2024-02-21T09:54:28;17.73;;;7.85;;
58338;SDS011;68636;52.704;6.536;2024-02-21T09:56:57;19.90;;;8.30;;
58338;SDS011;68636;52.704;6.536;2024-02-21T09:59:24;19.35;;;7.82;;
58338;SDS011;68636;52.704;6.536;2024-02-21T10:01:50;12.82;;;6.60;;
58338;SDS011;68636;52.704;6.536;2024-02-21T10:04:17;17.23;;;7.28;;
58338;SDS011;68636;52.704;6.536;2024-02-21T10:06:44;17.77;;;7.38;;
58338;SDS011;68636;52.704;6.536;2024-02-21T10:09:19;16.97;;;6.27;;
58338;SDS011;68636;52.704;6.536;2024-02-21T10:11:48;17.67;;;6.75;;
58338;SDS011;68636;52.704;6.536;2024-02-21T10:14:15;14.88;;;6.20;;
58338;SDS011;68636;52.704;6.536;2024-02-21T10:16:43;14.65;;;7.22;;
58338;SDS011;68636;52.704;6.536;2024-02-21T10:19:19;14.03;;;6.40;;
58338;SDS011;68636;52.704;6.536;2024-02-21T10:22:03;17.38;;;6.57;;
58338;SDS011;68636;52.704;6.536;2024-02-21T10:24:30;14.77;;;7.07;;
58338;SDS011;68636;52.704;6.536;2024-02-21T10:27:03;15.35;;;6.10;;
58338;SDS011;68636;52.704;6.536;2024-02-21T10:29:33;16.45;;;7.40;;
58338;SDS011;68636;52.704;6.536;2024-02-21T10:32:05;12.82;;;5.88;;
58338;SDS011;68636;52.704;6.536;2024-02-21T10:34:36;16.35;;;6.32;;
58338;SDS011;68636;52.704;6.536;2024-02-21T10:37:02;14.20;;;6.10;;
58338;SDS011;68636;52.704;6.536;2024-02-21T10:39:30;17.38;;;6.72;;
58338;SDS011;68636;52.704;6.536;2024-02-21T10:41:57;14.50;;;6.35;;
58338;SDS011;68636;52.704;6.536;2024-02-21T10:44:25;15.05;;;6.30;;
58338;SDS011;68636;52.704;6.536;2024-02-21T10:46:53;15.43;;;5.50;;
58338;SDS011;68636;52.704;6.536;2024-02-21T10:49:22;12.43;;;5.72;;
58338;SDS011;68636;52.704;6.536;2024-02-21T10:51:50;12.93;;;5.68;;
58338;SDS011;68636;52.704;6.536;2024-02-21T10:56:55;12.02;;;5.60;;
58338;SDS011;68636;52.704;6.536;2024-02-21T10:59:22;18.13;;;6.38;;
58338;SDS011;68636;52.704;6.536;2024-02-21T11:01:49;14.47;;;5.50;;
58338;SDS011;68636;52.704;6.536;2024-02-21T11:04:15;11.77;;;5.13;;
58338;SDS011;68636;52.704;6.536;2024-02-21T11:06:41;13.90;;;5.30;;
58338;SDS011;68636;52.704;6.536;2024-02-21T11:09:09;14.00;;;5.82;;
58338;SDS011;68636;52.704;6.536;2024-02-21T11:11:35;11.18;;;5.80;;
58338;SDS011;68636;52.704;6.536;2024-02-21T11:14:37;13.75;;;5.85;;
58338;SDS011;68636;52.704;6.536;2024-02-21T11:17:01;12.73;;;5.75;;
58338;SDS011;68636;52.704;6.536;2024-02-21T11:19:28;13.52;;;5.55;;
58338;SDS011;68636;52.704;6.536;2024-02-21T11:21:56;12.05;;;5.38;;
58338;SDS011;68636;52.704;6.536;2024-02-21T11:24:29;13.05;;;5.70;;
58338;SDS011;68636;52.704;6.536;2024-02-21T11:27:12;12.57;;;5.45;;
58338;SDS011;68636;52.704;6.536;2024-02-21T11:32:11;13.82;;;5.78;;
58338;SDS011;68636;52.704;6.536;2024-02-21T11:48:06;12.63;;;5.32;;
58338;SDS011;68636;52.704;6.536;2024-02-21T11:50:34;9.77;;;4.35;;
58338;SDS011;68636;52.704;6.536;2024-02-21T11:53:01;9.15;;;4.68;;
58338;SDS011;68636;52.704;6.536;2024-02-21T11:55:27;9.43;;;4.38;;
58338;SDS011;68636;52.704;6.536;2024-02-21T11:57:53;8.80;;;4.47;;
58338;SDS011;68636;52.704;6.536;2024-02-21T12:00:20;8.70;;;4.18;;
58338;SDS011;68636;52.704;6.536;2024-02-21T12:02:46;9.52;;;3.90;;
58338;SDS011;68636;52.704;6.536;2024-02-21T12:05:12;8.80;;;4.60;;
58338;SDS011;68636;52.704;6.536;2024-02-21T12:07:39;10.18;;;3.42;;
58338;SDS011;68636;52.704;6.536;2024-02-21T12:10:09;8.18;;;3.90;;
58338;SDS011;68636;52.704;6.536;2024-02-21T12:12:36;9.95;;;4.65;;
58338;SDS011;68636;52.704;6.536;2024-02-21T12:17:29;9.40;;;3.83;;
58338;SDS011;68636;52.704;6.536;2024-02-21T12:19:56;8.10;;;3.80;;
58338;SDS011;68636;52.704;6.536;2024-02-21T12:22:22;7.70;;;3.13;;
58338;SDS011;68636;52.704;6.536;2024-02-21T12:24:50;7.18;;;3.15;;
58338;SDS011;68636;52.704;6.536;2024-02-21T12:27:16;6.97;;;3.40;;
58338;SDS011;68636;52.704;6.536;2024-02-21T12:29:42;7.97;;;3.33;;
58338;SDS011;68636;52.704;6.536;2024-02-21T12:32:09;6.07;;;2.85;;
58338;SDS011;68636;52.704;6.536;2024-02-21T12:34:35;7.75;;;3.08;;
58338;SDS011;68636;52.704;6.536;2024-02-21T12:37:01;7.20;;;2.70;;
58338;SDS011;68636;52.704;6.536;2024-02-21T12:39:30;6.40;;;2.13;;
58338;SDS011;68636;52.704;6.536;2024-02-21T12:41:57;5.45;;;2.28;;
58338;SDS011;68636;52.704;6.536;2024-02-21T12:44:23;6.00;;;2.22;;
58338;SDS011;68636;52.704;6.536;2024-02-21T12:46:50;5.70;;;2.20;;
58338;SDS011;68636;52.704;6.536;2024-02-21T12:49:19;5.57;;;2.40;;
58338;SDS011;68636;52.704;6.536;2024-02-21T12:51:45;8.18;;;2.35;;
58338;SDS011;68636;52.704;6.536;2024-02-21T12:54:14;7.35;;;2.75;;
58338;SDS011;68636;52.704;6.536;2024-02-21T12:56:40;5.68;;;2.60;;
58338;SDS011;68636;52.704;6.536;2024-02-21T12:59:06;5.40;;;2.70;;
58338;SDS011;68636;52.704;6.536;2024-02-21T13:01:35;6.70;;;3.25;;
58338;SDS011;68636;52.704;6.536;2024-02-21T13:10:45;10.55;;;3.50;;
58338;SDS011;68636;52.704;6.536;2024-02-21T13:13:13;7.32;;;3.72;;
58338;SDS011;68636;52.704;6.536;2024-02-21T13:15:39;9.02;;;3.60;;
58338;SDS011;68636;52.704;6.536;2024-02-21T13:18:08;7.22;;;3.15;;
58338;SDS011;68636;52.704;6.536;2024-02-21T13:20:34;8.43;;;3.55;;
58338;SDS011;68636;52.704;6.536;2024-02-21T13:23:00;9.23;;;3.47;;
58338;SDS011;68636;52.704;6.536;2024-02-21T13:25:26;9.70;;;3.93;;
58338;SDS011;68636;52.704;6.536;2024-02-21T13:27:52;12.75;;;3.58;;
58338;SDS011;68636;52.704;6.536;2024-02-21T13:30:19;7.93;;;3.72;;
58338;SDS011;68636;52.704;6.536;2024-02-21T13:32:45;7.53;;;3.90;;
58338;SDS011;68636;52.704;6.536;2024-02-21T13:35:11;8.55;;;3.35;;
58338;SDS011;68636;52.704;6.536;2024-02-21T13:37:38;7.82;;;3.30;;
58338;SDS011;68636;52.704;6.536;2024-02-21T13:40:05;8.02;;;2.92;;
58338;SDS011;68636;52.704;6.536;2024-02-21T13:42:31;6.60;;;3.40;;
58338;SDS011;68636;52.704;6.536;2024-02-21T13:44:57;9.80;;;2.90;;
58338;SDS011;68636;52.704;6.536;2024-02-21T13:47:23;7.28;;;3.35;;
58338;SDS011;68636;52.704;6.536;2024-02-21T13:49:49;7.68;;;2.90;;
58338;SDS011;68636;52.704;6.536;2024-02-21T13:52:16;9.38;;;3.85;;
58338;SDS011;68636;52.704;6.536;2024-02-21T13:54:42;9.87;;;3.70;;
58338;SDS011;68636;52.704;6.536;2024-02-21T13:57:08;11.18;;;3.63;;
58338;SDS011;68636;52.704;6.536;2024-02-21T13:59:34;8.45;;;3.45;;
58338;SDS011;68636;52.704;6.536;2024-02-21T14:02:01;9.25;;;3.72;;
58338;SDS011;68636;52.704;6.536;2024-02-21T14:04:27;12.20;;;4.10;;
58338;SDS011;68636;52.704;6.536;2024-02-21T14:06:55;7.85;;;3.70;;
58338;SDS011;68636;52.704;6.536;2024-02-21T14:09:21;11.88;;;3.63;;
58338;SDS011;68636;52.704;6.536;2024-02-21T14:11:47;10.90;;;3.80;;
58338;SDS011;68636;52.704;6.536;2024-02-21T14:14:13;9.52;;;3.60;;
58338;SDS011;68636;52.704;6.536;2024-02-21T14:16:40;9.73;;;3.53;;
58338;SDS011;68636;52.704;6.536;2024-02-21T14:19:06;10.38;;;3.80;;
58338;SDS011;68636;52.704;6.536;2024-02-21T14:21:34;13.00;;;4.15;;
58338;SDS011;68636;52.704;6.536;2024-02-21T14:24:03;9.68;;;3.83;;
58338;SDS011;68636;52.704;6.536;2024-02-21T14:26:29;12.63;;;4.53;;
58338;SDS011;68636;52.704;6.536;2024-02-21T14:28:59;10.20;;;3.50;;
58338;SDS011;68636;52.704;6.536;2024-02-21T14:31:25;10.85;;;4.07;;
58338;SDS011;68636;52.704;6.536;2024-02-21T14:33:51;10.07;;;3.63;;
58338;SDS011;68636;52.704;6.536;2024-02-21T14:36:18;10.90;;;3.60;;
58338;SDS011;68636;52.704;6.536;2024-02-21T14:38:44;10.52;;;3.28;;
58338;SDS011;68636;52.704;6.536;2024-02-21T14:41:10;9.50;;;3.35;;
58338;SDS011;68636;52.704;6.536;2024-02-21T14:43:39;12.43;;;3.80;;
58338;SDS011;68636;52.704;6.536;2024-02-21T14:46:06;10.77;;;3.40;;
58338;SDS011;68636;52.704;6.536;2024-02-21T14:48:32;9.30;;;3.38;;
58338;SDS011;68636;52.704;6.536;2024-02-21T14:50:58;9.18;;;3.90;;
58338;SDS011;68636;52.704;6.536;2024-02-21T14:53:24;10.77;;;3.73;;
58338;SDS011;68636;52.704;6.536;2024-02-21T14:55:50;9.63;;;3.60;;
58338;SDS011;68636;52.704;6.536;2024-02-21T14:58:17;10.27;;;3.75;;
58338;SDS011;68636;52.704;6.536;2024-02-21T15:00:44;8.00;;;3.55;;
58338;SDS011;68636;52.704;6.536;2024-02-21T15:03:12;12.05;;;3.50;;
58338;SDS011;68636;52.704;6.536;2024-02-21T15:05:41;8.35;;;3.33;;
58338;SDS011;68636;52.704;6.536;2024-02-21T15:08:08;8.85;;;3.10;;
58338;SDS011;68636;52.704;6.536;2024-02-21T15:10:35;9.40;;;3.65;;
58338;SDS011;68636;52.704;6.536;2024-02-21T15:13:01;9.03;;;3.13;;
58338;SDS011;68636;52.704;6.536;2024-02-21T15:15:28;10.27;;;3.58;;
58338;SDS011;68636;52.704;6.536;2024-02-21T15:17:54;7.45;;;3.25;;
58338;SDS011;68636;52.704;6.536;2024-02-21T15:20:20;8.02;;;3.53;;
58338;SDS011;68636;52.704;6.536;2024-02-21T15:22:46;9.77;;;3.40;;
58338;SDS011;68636;52.704;6.536;2024-02-21T15:25:12;11.77;;;3.78;;
58338;SDS011;68636;52.704;6.536;2024-02-21T15:30:06;12.13;;;4.60;;